Weather observations for the past three days for
Washington
Metric (Imperial)
Date Time (cdt) Wind (kph) Vis. (km) Weather Sky Cond. Temperature (ºC) Relative Humidity Wind Chill (°C) Heat Index (°C) Pressure Precipitation (cm)
Air Dwpt 6 hour altimeter (cm) sea level (mb) 1 hr 3 hr 6 hr
Max. Min.
03 01:35 S 17 3.22 A Few Clouds with Haze FEW120 8 1 62% 6 76.1 0.0
03 01:15 SW 17 3.22 A Few Clouds with Haze FEW120 8 1 62% 6 76.12 0.0
03 00:55 S 15 1.61 Partly Cloudy with Haze SCT120 8 2 66% 6 76.12 0.0
03 00:35 S 13 1.61 Fair with Haze CLR 6 1 71% 4 76.15 0.0
03 00:15 SW 17 4.83 Fair with Haze CLR 7 1 66% 4 76.15 0.0
02 23:55 S 15 4.83 Fair with Haze CLR 6 1 71% 3 76.17 0.0
02 23:35 S 15 2.82 Fair with Haze CLR 6 1 71% 3 76.17 0.0
02 23:15 S 15 6.44 Fair with Haze CLR 6 0 66% 3 76.2 0.0
02 22:55 S 13 1.61 Fair with Haze CLR 6 0 66% 4 76.2 0.0
02 22:35 S 13 3.22 Fair with Haze CLR 7 0 61% 5 76.23 0.0
02 22:15 S 11 8.05 Fair with Haze CLR 8 0 57% 6 76.23 0.0
02 21:55 S 11 3.22 Fair with Haze CLR 8 -1 53% 6 76.25 0.0
02 21:35 S 11 6.44 Fair with Haze CLR 9 -1 50% 8 76.25 0.0
02 21:15 S 9 2.82 Fair with Haze CLR 9 -1 50% 8 76.25 0.0
02 20:55 SW 9 1.61 Fair with Haze CLR 11 -2 41% 76.25 0.0
02 20:35 SW 7 3.22 Fair with Haze CLR 13 -3 33% 76.23 0.0
02 20:15 W 7 0.40 Sky Obscured with Haze VV002 12 -2 38% 76.23 0.0
02 19:55 SW 9 0.40 Sky Obscured with Haze VV002 13 -2 36% 76.23 0.0
02 19:35 W 9 0.80 Sky Obscured with Haze VV005 14 -3 31% 76.23 0.0
02 19:15 W 17 0.40 Sky Obscured with Haze VV002 15 -4 27% 76.25 0.0
02 18:55 W 15 G 26 1.21 Sky Obscured with Haze VV005 15 -3 29% 76.25 0.0
02 18:35 W 15 0.40 Sky Obscured with Haze VV002 15 -3 29% 76.25 0.0
02 18:15 W 13 G 24 0.80 Sky Obscured with Haze VV005 15 -3 29% 76.28 0.0
02 17:55 W 13 0.40 Sky Obscured with Haze VV002 15 -3 29% 76.28 0.0
02 17:35 W 13 G 24 0.00 Fair CLR 15 -4 27% 76.3 0.0
02 17:15 SW 17 2.41 Fair with Haze CLR 15 -4 27% 76.3 0.0
02 16:55 Vrbl 9 G 30 0.40 Sky Obscured with Haze VV002 15 -4 27% 76.33 0.0
02 16:35 NW 15 0.40 Sky Obscured with Haze VV002 15 -4 27% 76.33 0.0
02 16:15 Vrbl 9 G 22 2.01 Fair with Haze CLR 15 -4 27% 76.33 0.0
02 15:55 NW 19 0.80 Sky Obscured with Haze VV005 15 -4 27% 76.35 0.0
02 15:35 Calm 8.05 Fair with Haze CLR 15 -5 25% 76.38 0.0
02 15:15 W 9 G 20 0.40 Sky Obscured with Haze VV002 15 -5 25% 76.4 0.0
02 14:35 Vrbl 7 G 22 2.41 Fair with Haze CLR 14 -4 29% 76.43 0.0
02 14:15 Vrbl 6 0.40 Sky Obscured with Haze VV002 14 -4 29% 76.45 0.0
02 13:55 Vrbl 11 0.80 Sky Obscured with Haze VV005 14 -4 29% 76.45 0.0
02 13:35 Vrbl 9 G 20 0.40 Sky Obscured with Haze VV002 14 -5 27% 76.48 0.0
02 13:15 Vrbl 9 G 19 0.24 Sky Obscured with Haze VV000 13 -5 28% 76.48 0.0
02 12:55 Vrbl 9 0.40 Mostly Cloudy with Haze BKN075 12 -6 28% 76.5 0.0
02 12:35 Vrbl 11 0.24 Overcast with Haze OVC075 13 -4 31% 76.5 0.0
02 12:15 Vrbl 7 0.80 Sky Obscured with Haze VV005 13 -6 26% 76.53 0.0
02 11:55 Calm 0.80 Sky Obscured with Haze VV005 13 -5 28% 76.53 0.0
02 11:35 Calm 0.80 Mostly Cloudy with Haze BKN075 12 -5 30% 76.53 0.0
02 11:15 NE 9 1.21 Mostly Cloudy with Haze BKN065 BKN075 11 -5 32% 76.56 0.0
02 10:55 Vrbl 6 0.80 Sky Obscured with Haze VV005 11 -4 35% 76.56 0.0
02 10:35 NE 11 0.40 Sky Obscured with Haze VV002 12 -6 28% 76.56 0.0
02 10:15 Calm 0.40 Sky Obscured with Haze VV002 11 -4 35% 76.56 0.0
02 09:55 Calm 0.40 Sky Obscured with Haze VV002 11 -2 41% 76.56 0.0
02 09:35 Calm 1.21 Sky Obscured with Haze VV005 10 3 62% 76.56 0.0
02 09:15 Calm 0.80 Sky Obscured with Haze VV005 9 4 71% 76.56 0.0
02 08:55 Calm 3.22 Fog/Mist CLR 8 7 93% 76.56 0.0
02 08:35 Calm 3.22 Fog/Mist CLR 7 7 100% 76.53 0.0
02 08:15 E 7 4.83 Fog/Mist CLR 6 6 100% 5 76.53 0.0
02 07:55 E 7 14.48 Fair CLR 5 5 100% 4 76.53 0.0 0.03
02 07:35 NE 9 14.48 Fair CLR 5 5 100% 3 76.53 0.0
02 07:15 Calm 6.44 Fog/Mist CLR 4 4 100% 76.5 0.0
02 06:55 NE 7 14.48 Fair CLR 2 2 100% 0 76.48 0.0
02 06:35 NE 9 0.80 Fog VV005 2 2 100% -0 76.48 0.0
02 06:15 NE 9 0.40 Fog VV002 2 2 100% -0 76.48 0.0
02 05:55 NE 6 3.22 Fog/Mist CLR 2 2 100% 76.45 0.0
02 05:35 NE 7 1.21 Fog/Mist VV005 2 2 100% 0 76.45 0.0
02 05:15 NE 11 4.83 Fog/Mist CLR 3 3 100% 0 76.45 0.0
02 04:55 NE 11 2.82 Fog/Mist BKN085 3 3 100% 0 76.45 0.0
02 04:35 NE 11 2.01 Fog/Mist OVC085 4 4 100% 2 76.43 0.0
02 04:15 NE 13 1.21 Fog/Mist OVC085 4 4 100% 1 76.43 0.0
02 03:55 NE 15 2.82 Fog/Mist BKN080 4 3 93% 1 76.43 0.0
02 03:35 NE 13 3.22 Fog/Mist FEW080 4 2 87% 1 76.4 0.0
02 03:15 N 13 1.21 Mostly Cloudy with Haze BKN085 5 2 81% 2 76.4 0.0
02 02:55 N 9 16.09 Partly Cloudy SCT085 5 2 81% 3 76.38 0.0
02 02:35 N 13 16.09 Mostly Cloudy BKN085 6 2 76% 4 76.38 0.0
02 02:15 N 11 4.83 A Few Clouds with Haze FEW085 6 3 81% 4 76.38 0.0
02 01:55 N 11 4.02 Mostly Cloudy with Haze BKN090 6 2 76% 4 76.38 0.0
02 01:35 N 7 3.22 Overcast with Haze OVC090 7 3 76% 6 76.4 0.0
02 01:15 N 6 2.82 Fog/Mist OVC090 7 5 87% 76.4 0.0
02 00:55 NW 6 4.02 Overcast with Haze OVC090 7 4 81% 76.4 0.0
02 00:35 NW 6 1.61 Fog/Mist OVC090 7 6 93% 76.4 0.0
02 00:15 NW 6 4.83 Fog/Mist FEW075 OVC090 7 6 93% 76.4 0.0
01 23:55 NW 9 2.41 Fog/Mist SCT050 BKN075 OVC090 6 6 100% 4 76.4 0.0
01 23:35 Calm 16.09 Overcast FEW065 SCT075 OVC090 6 6 100% 76.38 0.0
01 23:15 Calm 3.22 Fog/Mist SCT070 OVC090 6 6 100% 76.38 0.0
01 22:55 Calm 2.41 Fog/Mist SCT070 OVC090 6 4 87% 76.38 0.0
01 22:35 Calm 3.22 Fog/Mist BKN080 OVC090 6 4 87% 76.38 0.0
01 22:15 Calm 2.82 Partly Cloudy with Haze SCT080 6 3 81% 76.38 0.0
01 21:55 Calm 2.82 Fair with Haze CLR 8 2 66% 76.38 0.0
01 21:35 N 7 0.80 Sky Obscured with Haze VV005 8 1 62% 7 76.35 0.0
01 21:15 N 7 1.21 Sky Obscured with Haze VV005 8 2 66% 7 76.33 0.0
01 20:35 N 6 2.82 Fair with Haze CLR 10 2 58% 76.28 0.0
01 20:15 N 6 1.61 Partly Cloudy with Haze SCT100 10 2 58% 76.28 0.0
01 19:55 N 6 0.80 Mostly Cloudy with Haze BKN100 10 2 58% 76.25 0.0
01 19:35 N 11 0.40 Mostly Cloudy with Haze BKN100 11 2 54% 76.25 0.0
01 19:15 N 11 0.40 Mostly Cloudy with Haze BKN100 12 2 51% 76.23 0.0
01 18:55 N 15 0.40 Partly Cloudy with Haze SCT100 11 2 54% 76.23 0.0
01 18:35 N 20 3.22 A Few Clouds with Haze FEW090 11 2 54% 76.23 0.0
01 18:15 N 20 G 31 1.61 Partly Cloudy with Haze SCT085 11 3 58% 76.23 0.0
01 17:55 N 17 0.40 Sky Obscured with Haze VV002 12 1 47% 76.23 0.0
01 17:35 N 11 0.40 Sky Obscured with Haze VV002 12 2 51% 76.23 0.0
01 17:15 NW 7 0.80 Sky Obscured with Haze VV005 12 2 51% 76.23 0.0
01 16:55 NW 11 2.82 Fair with Haze CLR 12 1 47% 76.23 0.0
01 16:35 N 7 G 26 0.40 Sky Obscured with Haze VV002 12 2 51% 76.23 0.0
01 16:15 NE 24 2.41 Fair with Haze CLR 12 2 51% 76.23 0.0
01 15:55 N 24 1.61 Fair with Haze CLR 12 3 54% 76.23 0.0
01 15:35 NW 22 G 37 0.80 Sky Obscured with Haze VV005 13 1 44% 76.23 0.0
01 15:15 NW 13 G 26 0.24 Sky Obscured with Haze VV000 13 2 47% 76.23 0.0
01 14:55 Calm 1.21 Sky Obscured with Haze VV005 13 0 41% 76.23 0.0
01 14:15 N 9 G 26 0.80 Sky Obscured with Haze VV005 13 1 44% 76.25 0.0
01 13:55 NW 11 G 24 0.80 Mostly Cloudy with Haze BKN060 13 2 47% 76.25 0.0
01 13:35 Vrbl 11 0.24 Overcast with Haze OVC060 12 0 44% 76.25 0.0
01 13:15 Vrbl 9 G 19 0.80 Sky Obscured with Haze VV005 14 0 39% 76.23 0.0
01 12:55 NW 11 0.80 Partly Cloudy with Haze BKN060 SCT070 12 0 44% 76.25 0.0
01 12:35 Calm 0.40 Mostly Cloudy with Haze BKN055 BKN070 12 0 44% 76.25 0.0
01 12:15 Vrbl 6 0.40 Sky Obscured with Haze VV002 13 0 41% 76.25 0.0
01 11:55 Vrbl 11 0.80 Mostly Cloudy with Haze BKN055 13 0 41% 76.25 0.0
01 11:35 Vrbl 6 G 19 0.40 Sky Obscured with Haze VV002 13 0 41% 76.28 0.0
01 11:15 Calm 0.40 Sky Obscured with Haze VV002 12 -1 41% 76.28 0.0
01 10:55 Vrbl 6 0.40 Sky Obscured with Haze VV002 11 -1 44% 76.28 0.0
01 10:35 S 6 0.40 Partly Cloudy with Haze BKN060 SCT070 10 -1 47% 76.28 0.0
01 10:15 S 9 0.80 Mostly Cloudy with Haze BKN060 BKN070 11 -1 44% 76.3 0.0
01 09:55 Calm 0.40 Mostly Cloudy with Haze BKN065 10 -1 47% 76.3 0.0
01 09:35 Calm 0.80 Sky Obscured with Haze VV005 10 -1 47% 76.3 0.0
01 09:15 Vrbl 9 0.40 Sky Obscured with Haze VV002 10 -1 47% 9 76.3 0.0
01 08:55 E 7 0.80 Sky Obscured with Haze VV005 9 -1 50% 8 76.3 0.0
01 08:35 E 7 1.21 Sky Obscured with Haze VV005 8 -1 53% 7 76.3 0.0
01 08:15 Calm 0.80 Mostly Cloudy with Haze BKN065 8 0 57% 76.33 0.0
01 07:55 Calm 0.40 Overcast with Haze OVC065 6 0 66% 76.33 0.0
01 07:35 N 6 2.41 Overcast with Haze OVC070 6 2 76% 76.33 0.0
01 07:15 NE 6 2.82 Fog/Mist OVC070 4 4 100% 76.3 0.0
01 06:55 NW 6 1.61 Fog/Mist OVC070 3 3 100% 76.3 0.0
01 06:35 NW 9 0.80 Fog BKN070 BKN085 OVC110 1 1 100% -2 76.28 0.0
01 06:15 W 6 3.22 Fog/Mist FEW080 1 1 100% 76.28 0.0
01 05:55 W 9 4.02 Fog/Mist FEW070 1 1 100% -2 76.28 0.0
01 05:35 NW 6 14.48 Mostly Cloudy BKN065 2 0 87% 76.25 0.0
01 05:15 NW 9 4.02 Fog/Mist SCT065 2 0 87% -0 76.25 0.0
01 04:55 NW 7 2.01 Fog/Mist CLR 2 1 93% 0 76.28 0.0
01 04:35 W 7 1.21 Fog/Mist VV005 2 0 87% 0 76.28 0.0
01 04:15 W 7 0.80 Sky Obscured with Haze VV005 3 0 81% 1 76.28 0.0
01 03:55 W 9 3.22 Fog/Mist CLR 2 0 87% -0 76.28 0.0
01 03:35 W 9 1.61 Partly Cloudy with Haze SCT060 SCT075 3 0 81% 1 76.28 0.0
01 03:15 W 9 4.83 Fair with Haze CLR 3 -1 75% 1 76.28 0.0
01 02:55 W 11 3.22 Fair with Haze CLR 3 -1 75% 0 76.25 0.0
01 02:35 NW 11 2.41 Fair with Haze CLR 3 -1 75% 0 76.28 0.0
01 02:15 NW 13 2.82 Fair with Haze CLR 3 -1 75% 0 76.28 0.0
01 01:55 NW 11 2.82 Fair with Haze CLR 4 -1 70% 2 76.28 0.0
01 01:35 NW 13 3.22 Fair with Haze CLR 4 -1 70% 1 76.28 0.0
01 01:15 NW 15 2.01 Fair with Haze CLR 4 -1 70% 1 76.28 0.0
01 00:55 NW 13 1.21 Partly Cloudy with Haze SCT016 4 -1 70% 1 76.28 0.0
01 00:35 NW 15 2.41 Partly Cloudy with Haze SCT016 4 -1 70% 1 76.28 0.0
01 00:15 NW 15 2.82 Fair with Haze CLR 5 -1 66% 2 76.25 0.0
30 23:55 NW 15 3.22 Fair with Haze CLR 5 -2 61% 2 76.25 0.0
30 23:35 NW 15 3.22 Fair with Haze CLR 6 -2 57% 3 76.25 0.0
30 23:15 NW 17 2.01 Fair with Haze CLR 7 -2 53% 4 76.25 0.0
30 22:55 NW 19 2.41 Fair with Haze CLR 7 -2 53% 4 76.25 0.0
30 22:35 NW 19 2.01 Fair with Haze CLR 8 -2 50% 5 76.25 0.0
30 22:15 NW 19 3.22 Fair with Haze CLR 8 -2 50% 5 76.23 0.0
30 21:55 NW 19 2.01 Mostly Cloudy with Haze BKN085 9 -1 50% 7 76.23 0.0
30 21:35 NW 19 1.61 Overcast with Haze OVC085 10 -1 47% 8 76.2 0.0
30 20:55 NW 19 0.80 Overcast with Haze OVC080 10 -1 47% 8 76.17 0.0
30 20:35 NW 15 2.41 Mostly Cloudy with Haze BKN080 10 -1 47% 8 76.15 0.0
30 20:15 NW 15 0.80 Mostly Cloudy with Haze BKN085 10 0 50% 8 76.12 0.0
30 19:55 NW 15 3.22 Overcast with Haze OVC080 11 0 47% 76.12 0.0
30 19:35 NW 19 G 28 3.22 Overcast with Haze SCT070 OVC080 12 0 44% 76.12 0.0
30 19:15 NW 19 0.80 Overcast with Haze BKN050 OVC065 12 1 47% 76.1 0.0
30 18:55 NW 26 1.21 Overcast with Haze BKN050 OVC060 12 2 51% 76.1 0.0
30 18:35 NW 24 0.40 Overcast with Haze OVC050 12 2 51% 76.1 0.0
30 18:15 NW 28 0.80 Mostly Cloudy with Haze BKN050 13 2 47% 76.1 0.0
30 17:55 NW 24 0.80 Mostly Cloudy with Haze BKN047 13 2 47% 76.07 0.0
30 17:35 NW 26 G 35 1.61 Mostly Cloudy with Haze BKN044 13 3 51% 76.07 0.0
30 17:15 N 20 G 33 2.01 Mostly Cloudy with Haze BKN042 BKN047 14 4 51% 76.07 0.0
30 16:55 N 24 G 33 1.61 Fair with Haze CLR 14 4 51% 76.07 0.0
30 16:35 N 22 G 33 0.40 Mostly Cloudy with Haze BKN040 14 4 51% 76.07 0.0
30 16:15 NW 26 1.21 Mostly Cloudy with Haze BKN040 13 5 59% 76.07 0.0
30 15:55 N 30 G 41 0.40 Mostly Cloudy with Haze BKN031 BKN037 BKN042 14 5 55% 76.1 0.0
30 15:35 NW 28 G 41 0.24 Overcast with Haze OVC030 14 7 63% 76.1 0.0
30 15:15 N 30 0.40 Mostly Cloudy with Haze BKN031 BKN039 BKN046 15 7 59% 76.1 0.0
30 14:55 NW 11 G 20 0.80 Overcast with Haze BKN031 BKN037 OVC060 14 7 63% 76.1 0.0
30 14:35 SW 11 G 22 0.80 Mostly Cloudy with Haze SCT047 BKN060 13 7 67% 76.1 0.0
30 14:15 SW 13 1.61 Mostly Cloudy with Haze SCT047 BKN060 12 7 72% 76.12 0.0
30 13:55 SW 13 G 22 0.40 Sky Obscured with Haze VV002 12 7 72% 76.12 0.0
30 13:35 SW 17 1.21 Mostly Cloudy with Haze BKN041 BKN049 12 8 77% 76.15 0.0
30 13:15 SW 19 G 28 1.21 Overcast with Haze BKN043 OVC050 13 7 67% 76.15 0.0
30 12:55 SW 13 0.40 Overcast with Haze OVC050 13 7 67% 76.17 0.0
30 12:35 SW 9 G 20 0.80 Overcast with Haze OVC055 13 8 72% 76.17 0.0
30 12:15 SW 13 0.80 Mostly Cloudy with Haze BKN055 BKN070 12 9 82% 76.2 0.0
30 11:55 SW 17 2.41 Fog/Mist SCT055 12 11 94% 76.23 0.0
30 11:35 SW 11 1.61 Fog/Mist SCT048 SCT055 10 10 100% 9 76.25 0.0
30 11:15 SW 11 0.80 Fog/Mist BKN049 10 10 100% 9 76.28 0.0
30 10:55 W 7 0.40 Fog VV002 10 10 100% 9 76.3 0.0
30 10:35 W 13 G 30 2.01 Light Rain CLR 10 9 94% 8 76.3 0.0
30 10:15 W 15 G 35 9.66 Light Rain CLR 9 9 100% 7 76.3 0.0
30 09:55 W 28 6.44 Fair with Haze CLR 10 6 76% 7 76.28 0.0
30 09:35 W 20 0.40 Sky Obscured with Haze VV002 10 4 67% 8 76.28 0.0
30 09:15 W 15 0.80 Sky Obscured with Haze VV005 10 4 67% 8 76.25 0.0
30 08:55 SW 11 1.21 Sky Obscured with Haze VV005 9 4 71% 8 76.25 0.0
30 08:35 SW 7 1.21 Sky Obscured with Haze VV005 8 5 82% 7 76.25 0.0
30 08:15 W 7 2.01 Fair with Haze CLR 8 4 76% 7 76.28 0.0
30 07:55 W 9 0.80 Sky Obscured with Haze VV005 7 4 81% 5 76.28 0.0
30 07:35 W 11 1.21 Sky Obscured with Haze VV005 7 3 76% 5 76.28 0.0
30 07:15 W 11 2.01 Fair with Haze CLR 6 3 81% 4 76.25 0.0
30 06:55 W 13 0.80 Mostly Cloudy with Haze BKN120 5 3 87% 2 76.25 0.0
30 06:35 SW 13 0.40 Overcast with Haze OVC120 5 2 81% 2 76.25 0.0
30 06:15 W 9 0.80 Overcast with Haze OVC120 5 1 76% 3 76.25 0.0
30 05:55 SW 13 2.01 Fog/Mist OVC110 4 3 93% 1 76.25 0.0
30 05:35 W 13 4.83 Fog/Mist FEW110 3 3 100% 0 76.25 0.0
30 05:15 SW 9 4.02 Fog/Mist CLR 3 3 100% 1 76.25 0.0
30 04:55 SW 9 2.41 Fair with Haze CLR 3 1 87% 1 76.25 0.0
30 04:35 Calm 3.22 Fair with Haze CLR 4 1 81% 76.23 0.0
30 04:15 Calm 2.82 Fair with Haze CLR 4 1 81% 76.25 0.0
30 03:55 Calm 2.82 Fog/Mist CLR 3 2 93% 76.28 0.0
30 03:35 W 9 2.41 Fog/Mist CLR 3 1 87% 1 76.3 0.0
30 03:15 W 9 1.61 Fog/Mist CLR 3 2 93% 1 76.28 0.0
30 02:55 W 6 1.21 Sky Obscured with Haze VV005 3 1 87% 76.28 0.0
30 02:35 SW 11 2.41 Fair with Haze CLR 4 0 75% 2 76.3 0.0
30 02:15 SW 7 2.82 Fog/Mist CLR 4 1 81% 2 76.3 0.0
Date Time (cdt) Wind (kph) Vis. (km) Weather Sky Cond. Air Dwpt Max. Min. Relative Humidity Wind Chill (°C) Heat Index (°C) altimeter (cm) sea level (mb) 1 hr 3 hr 6 hr
6 hour
Temperature (ºC) Pressure Precipitation (cm)